sensor_id;sensor_type;location;lat;lon;timestamp;pressure;altitude;pressure_sealevel;temperature;humidity
60101;BME280;45978;53.646;55.930;2022-11-25T00:00:38;100008.03;;;-0.52;91.84
60101;BME280;45978;53.646;55.930;2022-11-25T00:01:40;100005.31;;;-0.60;91.44
60101;BME280;45978;53.646;55.930;2022-11-25T00:02:42;100004.19;;;-0.73;91.34
60101;BME280;45978;53.646;55.930;2022-11-25T00:03:46;100016.38;;;-0.66;91.81
60101;BME280;45978;53.646;55.930;2022-11-25T00:04:50;100012.22;;;-0.59;92.29
60101;BME280;45978;53.646;55.930;2022-11-25T00:05:52;100005.31;;;-0.60;91.71
60101;BME280;45978;53.646;55.930;2022-11-25T00:06:53;100027.97;;;-0.44;92.23
60101;BME280;45978;53.646;55.930;2022-11-25T00:07:58;100016.69;;;-0.49;92.10
60101;BME280;45978;53.646;55.930;2022-11-25T00:09:09;100012.44;;;-0.47;91.87
60101;BME280;45978;53.646;55.930;2022-11-25T00:10:12;99997.75;;;-0.49;92.00
60101;BME280;45978;53.646;55.930;2022-11-25T00:11:20;100027.31;;;-0.32;91.54
60101;BME280;45978;53.646;55.930;2022-11-25T00:12:28;100016.09;;;-0.35;91.76
60101;BME280;45978;53.646;55.930;2022-11-25T00:13:30;100022.28;;;-0.24;91.38
60101;BME280;45978;53.646;55.930;2022-11-25T00:14:31;100029.22;;;-0.23;91.15
60101;BME280;45978;53.646;55.930;2022-11-25T00:15:32;100036.13;;;-0.21;91.38
60101;BME280;45978;53.646;55.930;2022-11-25T00:16:34;100010.16;;;-0.30;91.16
60101;BME280;45978;53.646;55.930;2022-11-25T00:17:35;100023.19;;;-0.22;90.92
60101;BME280;45978;53.646;55.930;2022-11-25T00:18:37;100018.03;;;-0.24;90.57
60101;BME280;45978;53.646;55.930;2022-11-25T00:19:40;100033.56;;;-0.21;90.68
60101;BME280;45978;53.646;55.930;2022-11-25T00:20:41;100030.88;;;-0.27;90.81
60101;BME280;45978;53.646;55.930;2022-11-25T00:21:42;100029.16;;;-0.26;90.69
60101;BME280;45978;53.646;55.930;2022-11-25T00:22:48;100024.84;;;-0.27;90.78
60101;BME280;45978;53.646;55.930;2022-11-25T00:23:59;100040.47;;;-0.18;90.88
60101;BME280;45978;53.646;55.930;2022-11-25T00:25:13;100031.69;;;-0.29;90.76
60101;BME280;45978;53.646;55.930;2022-11-25T00:26:28;100036.06;;;-0.25;90.34
60101;BME280;45978;53.646;55.930;2022-11-25T00:27:29;100031.72;;;-0.26;90.80
60101;BME280;45978;53.646;55.930;2022-11-25T00:28:33;100044.81;;;-0.17;90.58
60101;BME280;45978;53.646;55.930;2022-11-25T00:29:43;100027.41;;;-0.27;90.10
60101;BME280;45978;53.646;55.930;2022-11-25T00:30:48;100053.47;;;-0.13;90.60
60101;BME280;45978;53.646;55.930;2022-11-25T00:31:53;100024.78;;;-0.30;90.52
60101;BME280;45978;53.646;55.930;2022-11-25T00:33:04;100053.47;;;-0.13;90.56
60101;BME280;45978;53.646;55.930;2022-11-25T00:34:08;100053.47;;;-0.13;90.11
60101;BME280;45978;53.646;55.930;2022-11-25T00:35:13;100055.16;;;-0.15;90.30
60101;BME280;45978;53.646;55.930;2022-11-25T00:36:20;100056.03;;;-0.15;89.99
60101;BME280;45978;53.646;55.930;2022-11-25T00:37:25;100060.34;;;-0.12;90.48
60101;BME280;45978;53.646;55.930;2022-11-25T00:38:34;100054.16;;;-0.22;90.18
60101;BME280;45978;53.646;55.930;2022-11-25T00:39:35;100058.53;;;-0.19;89.97
60101;BME280;45978;53.646;55.930;2022-11-25T00:40:37;100043.72;;;-0.28;89.87
60101;BME280;45978;53.646;55.930;2022-11-25T00:41:38;100058.44;;;-0.24;89.98
60101;BME280;45978;53.646;55.930;2022-11-25T00:42:58;100046.31;;;-0.28;89.67
60101;BME280;45978;53.646;55.930;2022-11-25T00:45:00;100049.63;;;-0.35;89.83
60101;BME280;45978;53.646;55.930;2022-11-25T00:46:02;100058.25;;;-0.35;90.00
60101;BME280;45978;53.646;55.930;2022-11-25T00:48:09;100087.50;;;-0.33;89.65
60101;BME280;45978;53.646;55.930;2022-11-25T00:49:10;100072.72;;;-0.42;89.84
60101;BME280;45978;53.646;55.930;2022-11-25T00:50:11;100079.63;;;-0.41;89.93
60101;BME280;45978;53.646;55.930;2022-11-25T00:51:13;100083.94;;;-0.40;89.94
60101;BME280;45978;53.646;55.930;2022-11-25T00:52:22;100067.44;;;-0.48;89.38
60101;BME280;45978;53.646;55.930;2022-11-25T00:53:40;100087.41;;;-0.37;90.04
60101;BME280;45978;53.646;55.930;2022-11-25T00:54:47;100095.09;;;-0.41;89.91
60101;BME280;45978;53.646;55.930;2022-11-25T00:55:52;100098.56;;;-0.38;90.13
60101;BME280;45978;53.646;55.930;2022-11-25T00:57:13;100101.09;;;-0.42;89.82
60101;BME280;45978;53.646;55.930;2022-11-25T00:58:14;100101.13;;;-0.40;89.94
60101;BME280;45978;53.646;55.930;2022-11-25T00:59:16;100100.19;;;-0.44;90.23
60101;BME280;45978;53.646;55.930;2022-11-25T01:00:19;100097.56;;;-0.47;90.04
60101;BME280;45978;53.646;55.930;2022-11-25T01:01:21;100094.13;;;-0.47;89.88
60101;BME280;45978;53.646;55.930;2022-11-25T01:02:36;100094.03;;;-0.50;89.71
60101;BME280;45978;53.646;55.930;2022-11-25T01:03:58;100099.19;;;-0.50;90.05
60101;BME280;45978;53.646;55.930;2022-11-25T01:05:00;100093.16;;;-0.52;90.24
60101;BME280;45978;53.646;55.930;2022-11-25T01:06:11;100077.50;;;-0.60;89.94
60101;BME280;45978;53.646;55.930;2022-11-25T01:07:16;100095.78;;;-0.49;90.29
60101;BME280;45978;53.646;55.930;2022-11-25T01:08:23;100100.94;;;-0.49;90.21
60101;BME280;45978;53.646;55.930;2022-11-25T01:09:26;100093.09;;;-0.54;90.05
60101;BME280;45978;53.646;55.930;2022-11-25T01:10:27;100093.97;;;-0.55;89.72
60101;BME280;45978;53.646;55.930;2022-11-25T01:11:28;100098.34;;;-0.49;90.13
60101;BME280;45978;53.646;55.930;2022-11-25T01:12:30;100109.56;;;-0.49;89.95
60101;BME280;45978;53.646;55.930;2022-11-25T01:13:32;100100.03;;;-0.53;90.21
60101;BME280;45978;53.646;55.930;2022-11-25T01:14:37;100105.97;;;-0.55;90.13
60101;BME280;45978;53.646;55.930;2022-11-25T01:15:43;100113.81;;;-0.51;90.00
60101;BME280;45978;53.646;55.930;2022-11-25T01:17:01;100112.97;;;-0.50;89.75
60101;BME280;45978;53.646;55.930;2022-11-25T01:18:10;100090.44;;;-0.58;89.80
60101;BME280;45978;53.646;55.930;2022-11-25T01:19:11;100114.72;;;-0.49;90.06
60101;BME280;45978;53.646;55.930;2022-11-25T01:20:15;100103.50;;;-0.51;89.95
60101;BME280;45978;53.646;55.930;2022-11-25T01:21:22;100105.19;;;-0.53;89.86
60101;BME280;45978;53.646;55.930;2022-11-25T01:22:25;100100.81;;;-0.55;89.86
60101;BME280;45978;53.646;55.930;2022-11-25T01:23:28;100113.94;;;-0.45;90.18
60101;BME280;45978;53.646;55.930;2022-11-25T01:24:35;100098.22;;;-0.57;89.81
60101;BME280;45978;53.646;55.930;2022-11-25T01:25:38;100117.34;;;-0.46;90.68
60101;BME280;45978;53.646;55.930;2022-11-25T01:26:40;100108.59;;;-0.54;90.29
60101;BME280;45978;53.646;55.930;2022-11-25T01:27:41;100099.09;;;-0.56;90.28
60101;BME280;45978;53.646;55.930;2022-11-25T01:28:49;100115.53;;;-0.50;90.37
60101;BME280;45978;53.646;55.930;2022-11-25T01:29:54;100104.25;;;-0.56;90.43
60101;BME280;45978;53.646;55.930;2022-11-25T01:31:08;100111.28;;;-0.48;90.22
60101;BME280;45978;53.646;55.930;2022-11-25T01:32:14;100110.50;;;-0.45;90.38
60101;BME280;45978;53.646;55.930;2022-11-25T01:33:52;100103.53;;;-0.48;90.08
60101;BME280;45978;53.646;55.930;2022-11-25T01:34:58;100118.25;;;-0.44;90.12
60101;BME280;45978;53.646;55.930;2022-11-25T01:36:06;100120.81;;;-0.45;90.26
60101;BME280;45978;53.646;55.930;2022-11-25T01:37:17;100125.81;;;-0.53;89.99
60101;BME280;45978;53.646;55.930;2022-11-25T01:38:40;100128.47;;;-0.48;90.73
60101;BME280;45978;53.646;55.930;2022-11-25T01:39:47;100119.84;;;-0.50;90.20
60101;BME280;45978;53.646;55.930;2022-11-25T01:40:50;100121.56;;;-0.49;90.47
60101;BME280;45978;53.646;55.930;2022-11-25T01:41:55;100138.00;;;-0.44;90.11
60101;BME280;45978;53.646;55.930;2022-11-25T01:42:59;100122.63;;;-0.41;90.49
60101;BME280;45978;53.646;55.930;2022-11-25T01:44:20;100133.84;;;-0.37;90.65
60101;BME280;45978;53.646;55.930;2022-11-25T01:45:33;100133.78;;;-0.41;90.53
60101;BME280;45978;53.646;55.930;2022-11-25T01:46:54;100140.72;;;-0.38;89.84
60101;BME280;45978;53.646;55.930;2022-11-25T01:48:10;100142.31;;;-0.45;90.42
60101;BME280;45978;53.646;55.930;2022-11-25T01:50:40;100131.75;;;-0.57;90.83
60101;BME280;45978;53.646;55.930;2022-11-25T01:52:33;100153.44;;;-0.47;90.66
60101;BME280;45978;53.646;55.930;2022-11-25T01:53:43;100130.00;;;-0.58;90.41
60101;BME280;45978;53.646;55.930;2022-11-25T01:55:16;100151.56;;;-0.54;91.09
60101;BME280;45978;53.646;55.930;2022-11-25T01:56:30;100150.66;;;-0.56;90.94
60101;BME280;45978;53.646;55.930;2022-11-25T01:57:39;100158.50;;;-0.52;90.67
60101;BME280;45978;53.646;55.930;2022-11-25T01:58:49;100159.44;;;-0.48;91.08
60101;BME280;45978;53.646;55.930;2022-11-25T01:59:53;100154.28;;;-0.48;90.81
60101;BME280;45978;53.646;55.930;2022-11-25T02:00:57;100159.56;;;-0.42;91.00
60101;BME280;45978;53.646;55.930;2022-11-25T02:02:00;100162.22;;;-0.39;90.89
60101;BME280;45978;53.646;55.930;2022-11-25T02:03:33;100149.97;;;-0.48;91.25
60101;BME280;45978;53.646;55.930;2022-11-25T02:04:47;100162.13;;;-0.42;91.33
60101;BME280;45978;53.646;55.930;2022-11-25T02:06:03;100153.47;;;-0.46;90.90
60101;BME280;45978;53.646;55.930;2022-11-25T02:07:12;100158.66;;;-0.44;90.57
60101;BME280;45978;53.646;55.930;2022-11-25T02:08:18;100152.56;;;-0.48;90.95
60101;BME280;45978;53.646;55.930;2022-11-25T02:09:20;100145.53;;;-0.55;90.78
60101;BME280;45978;53.646;55.930;2022-11-25T02:10:29;100166.41;;;-0.44;90.52
60101;BME280;45978;53.646;55.930;2022-11-25T02:11:38;100149.03;;;-0.53;90.36
60101;BME280;45978;53.646;55.930;2022-11-25T02:12:43;100144.69;;;-0.54;90.36
60101;BME280;45978;53.646;55.930;2022-11-25T02:13:46;100165.56;;;-0.43;90.89
60101;BME280;45978;53.646;55.930;2022-11-25T02:14:51;100171.50;;;-0.46;90.52
60101;BME280;45978;53.646;55.930;2022-11-25T02:16:04;100175.00;;;-0.44;89.85
60101;BME280;45978;53.646;55.930;2022-11-25T02:17:07;100149.72;;;-0.60;90.59
60101;BME280;45978;53.646;55.930;2022-11-25T02:18:08;100176.72;;;-0.44;90.29
60101;BME280;45978;53.646;55.930;2022-11-25T02:19:23;100179.25;;;-0.46;90.07
60101;BME280;45978;53.646;55.930;2022-11-25T02:20:25;100172.38;;;-0.47;90.19
60101;BME280;45978;53.646;55.930;2022-11-25T02:21:34;100172.25;;;-0.51;90.15
60101;BME280;45978;53.646;55.930;2022-11-25T02:24:06;100171.34;;;-0.55;89.71
60101;BME280;45978;53.646;55.930;2022-11-25T02:25:22;100189.38;;;-0.55;89.32
60101;BME280;45978;53.646;55.930;2022-11-25T02:26:23;100187.66;;;-0.54;90.14
60101;BME280;45978;53.646;55.930;2022-11-25T02:27:26;100182.44;;;-0.59;90.08
60101;BME280;45978;53.646;55.930;2022-11-25T02:28:30;100192.84;;;-0.54;90.15
60101;BME280;45978;53.646;55.930;2022-11-25T02:29:33;100190.28;;;-0.53;89.92
60101;BME280;45978;53.646;55.930;2022-11-25T02:30:35;100194.56;;;-0.53;89.86
60101;BME280;45978;53.646;55.930;2022-11-25T02:31:39;100192.88;;;-0.53;90.28
60101;BME280;45978;53.646;55.930;2022-11-25T02:32:46;100198.03;;;-0.51;89.80
60101;BME280;45978;53.646;55.930;2022-11-25T02:33:49;100185.09;;;-0.54;89.87
60101;BME280;45978;53.646;55.930;2022-11-25T02:34:52;100196.41;;;-0.48;90.24
60101;BME280;45978;53.646;55.930;2022-11-25T02:36:01;100199.06;;;-0.45;90.16
60101;BME280;45978;53.646;55.930;2022-11-25T02:37:06;100200.78;;;-0.45;90.15
60101;BME280;45978;53.646;55.930;2022-11-25T02:38:20;100204.09;;;-0.49;89.50
60101;BME280;45978;53.646;55.930;2022-11-25T02:39:28;100197.94;;;-0.56;89.38
60101;BME280;45978;53.646;55.930;2022-11-25T02:42:20;100204.88;;;-0.53;90.02
60101;BME280;45978;53.646;55.930;2022-11-25T02:43:25;100193.56;;;-0.60;89.69
60101;BME280;45978;53.646;55.930;2022-11-25T02:44:27;100184.81;;;-0.67;89.16
60101;BME280;45978;53.646;55.930;2022-11-25T02:46:54;100210.03;;;-0.55;89.53
60101;BME280;45978;53.646;55.930;2022-11-25T02:48:01;100214.22;;;-0.58;89.13
60101;BME280;45978;53.646;55.930;2022-11-25T02:49:03;100225.50;;;-0.55;89.67
60101;BME280;45978;53.646;55.930;2022-11-25T02:50:05;100225.47;;;-0.56;89.09
60101;BME280;45978;53.646;55.930;2022-11-25T02:51:12;100226.28;;;-0.59;89.26
60101;BME280;45978;53.646;55.930;2022-11-25T02:52:14;100221.72;;;-0.69;89.11
60101;BME280;45978;53.646;55.930;2022-11-25T02:53:16;100209.59;;;-0.73;89.24
60101;BME280;45978;53.646;55.930;2022-11-25T02:54:18;100216.50;;;-0.72;89.22
60101;BME280;45978;53.646;55.930;2022-11-25T02:55:19;100238.06;;;-0.69;89.45
60101;BME280;45978;53.646;55.930;2022-11-25T02:56:24;100238.19;;;-0.64;89.20
60101;BME280;45978;53.646;55.930;2022-11-25T02:57:27;100243.38;;;-0.63;88.84
60101;BME280;45978;53.646;55.930;2022-11-25T02:58:28;100231.16;;;-0.70;88.98
60101;BME280;45978;53.646;55.930;2022-11-25T02:59:30;100219.94;;;-0.72;89.18
60101;BME280;45978;53.646;55.930;2022-11-25T03:00:32;100232.06;;;-0.68;89.37
60101;BME280;45978;53.646;55.930;2022-11-25T03:01:34;100241.63;;;-0.64;89.30
60101;BME280;45978;53.646;55.930;2022-11-25T03:02:41;100245.91;;;-0.64;89.07
60101;BME280;45978;53.646;55.930;2022-11-25T03:03:43;100245.00;;;-0.66;88.87
60101;BME280;45978;53.646;55.930;2022-11-25T03:04:44;100235.31;;;-0.76;89.12
60101;BME280;45978;53.646;55.930;2022-11-25T03:05:45;100261.44;;;-0.63;88.83
60101;BME280;45978;53.646;55.930;2022-11-25T03:06:47;100237.03;;;-0.75;89.29
60101;BME280;45978;53.646;55.930;2022-11-25T03:07:48;100244.88;;;-0.72;88.90
60101;BME280;45978;53.646;55.930;2022-11-25T03:08:51;100259.66;;;-0.64;88.89
60101;BME280;45978;53.646;55.930;2022-11-25T03:09:54;100261.34;;;-0.66;89.43
60101;BME280;45978;53.646;55.930;2022-11-25T03:10:58;100267.44;;;-0.62;89.06
60101;BME280;45978;53.646;55.930;2022-11-25T03:12:00;100260.44;;;-0.68;88.79
60101;BME280;45978;53.646;55.930;2022-11-25T03:13:20;100270.84;;;-0.63;88.61
60101;BME280;45978;53.646;55.930;2022-11-25T03:14:22;100269.94;;;-0.65;88.83
60101;BME280;45978;53.646;55.930;2022-11-25T03:15:23;100256.09;;;-0.70;88.66
60101;BME280;45978;53.646;55.930;2022-11-25T03:16:28;100262.16;;;-0.68;88.72
60101;BME280;45978;53.646;55.930;2022-11-25T03:17:29;100262.19;;;-0.67;89.14
60101;BME280;45978;53.646;55.930;2022-11-25T03:18:30;100265.53;;;-0.69;88.93
60101;BME280;45978;53.646;55.930;2022-11-25T03:19:33;100263.88;;;-0.67;88.71
60101;BME280;45978;53.646;55.930;2022-11-25T03:20:35;100278.66;;;-0.60;88.22
60101;BME280;45978;53.646;55.930;2022-11-25T03:21:37;100278.53;;;-0.66;88.57
60101;BME280;45978;53.646;55.930;2022-11-25T03:22:42;100287.16;;;-0.64;88.20
60101;BME280;45978;53.646;55.930;2022-11-25T03:23:45;100267.97;;;-0.75;88.63
60101;BME280;45978;53.646;55.930;2022-11-25T03:24:46;100276.00;;;-0.65;88.67
60101;BME280;45978;53.646;55.930;2022-11-25T03:25:50;100289.72;;;-0.66;88.43
60101;BME280;45978;53.646;55.930;2022-11-25T03:26:51;100281.06;;;-0.68;88.49
60101;BME280;45978;53.646;55.930;2022-11-25T03:27:55;100273.13;;;-0.75;88.72
60101;BME280;45978;53.646;55.930;2022-11-25T03:28:59;100290.56;;;-0.65;88.31
60101;BME280;45978;53.646;55.930;2022-11-25T03:30:01;100286.25;;;-0.66;88.24
60101;BME280;45978;53.646;55.930;2022-11-25T03:31:09;100288.75;;;-0.69;88.39
60101;BME280;45978;53.646;55.930;2022-11-25T03:32:12;100282.59;;;-0.76;88.10
60101;BME280;45978;53.646;55.930;2022-11-25T03:33:13;100280.81;;;-0.78;88.19
60101;BME280;45978;53.646;55.930;2022-11-25T03:34:15;100290.50;;;-0.68;88.32
60101;BME280;45978;53.646;55.930;2022-11-25T03:35:18;100283.41;;;-0.78;88.70
60101;BME280;45978;53.646;55.930;2022-11-25T03:36:21;100288.66;;;-0.74;87.93
60101;BME280;45978;53.646;55.930;2022-11-25T03:37:22;100281.72;;;-0.76;88.50
60101;BME280;45978;53.646;55.930;2022-11-25T03:38:24;100287.78;;;-0.74;88.50
60101;BME280;45978;53.646;55.930;2022-11-25T03:39:25;100303.41;;;-0.68;88.56
60101;BME280;45978;53.646;55.930;2022-11-25T03:40:27;100307.75;;;-0.66;88.16
60101;BME280;45978;53.646;55.930;2022-11-25T03:41:28;100287.78;;;-0.74;88.74
60101;BME280;45978;53.646;55.930;2022-11-25T03:42:30;100304.22;;;-0.69;88.11
60101;BME280;45978;53.646;55.930;2022-11-25T03:43:32;100312.91;;;-0.66;88.31
60101;BME280;45978;53.646;55.930;2022-11-25T03:44:36;100299.06;;;-0.69;88.59
60101;BME280;45978;53.646;55.930;2022-11-25T03:45:38;100308.59;;;-0.67;88.32
60101;BME280;45978;53.646;55.930;2022-11-25T03:46:41;100314.63;;;-0.66;88.21
60101;BME280;45978;53.646;55.930;2022-11-25T03:47:43;100309.38;;;-0.69;88.63
60101;BME280;45978;53.646;55.930;2022-11-25T03:48:46;100311.97;;;-0.69;88.21
60101;BME280;45978;53.646;55.930;2022-11-25T03:49:47;100311.19;;;-0.65;88.31
60101;BME280;45978;53.646;55.930;2022-11-25T03:50:49;100317.25;;;-0.65;87.83
60101;BME280;45978;53.646;55.930;2022-11-25T03:51:50;100306.69;;;-0.74;87.92
60101;BME280;45978;53.646;55.930;2022-11-25T03:52:55;100309.19;;;-0.77;87.77
60101;BME280;45978;53.646;55.930;2022-11-25T03:53:57;100311.00;;;-0.74;88.06
60101;BME280;45978;53.646;55.930;2022-11-25T03:54:59;100319.69;;;-0.69;87.80
60101;BME280;45978;53.646;55.930;2022-11-25T03:56:04;100297.03;;;-0.83;87.83
60101;BME280;45978;53.646;55.930;2022-11-25T03:57:06;100307.50;;;-0.76;87.78
60101;BME280;45978;53.646;55.930;2022-11-25T03:58:13;100333.59;;;-0.64;88.00
60101;BME280;45978;53.646;55.930;2022-11-25T03:59:15;100317.00;;;-0.74;87.93
60101;BME280;45978;53.646;55.930;2022-11-25T04:00:18;100326.53;;;-0.71;88.29
60101;BME280;45978;53.646;55.930;2022-11-25T04:01:24;100327.28;;;-0.75;88.04
60101;BME280;45978;53.646;55.930;2022-11-25T04:02:25;100331.63;;;-0.74;87.73
60101;BME280;45978;53.646;55.930;2022-11-25T04:03:27;100345.44;;;-0.72;87.83
60101;BME280;45978;53.646;55.930;2022-11-25T04:04:30;100340.97;;;-0.78;87.84
60101;BME280;45978;53.646;55.930;2022-11-25T04:05:31;100344.53;;;-0.73;87.81
60101;BME280;45978;53.646;55.930;2022-11-25T04:06:37;100339.25;;;-0.77;88.21
60101;BME280;45978;53.646;55.930;2022-11-25T04:07:41;100340.88;;;-0.81;87.93
60101;BME280;45978;53.646;55.930;2022-11-25T04:08:43;100340.88;;;-0.83;87.57
60101;BME280;45978;53.646;55.930;2022-11-25T04:09:44;100340.78;;;-0.86;87.97
60101;BME280;45978;53.646;55.930;2022-11-25T04:10:51;100351.06;;;-0.87;87.30
60101;BME280;45978;53.646;55.930;2022-11-25T04:11:58;100345.84;;;-0.90;88.05
60101;BME280;45978;53.646;55.930;2022-11-25T04:13:26;100343.28;;;-0.89;87.67
60101;BME280;45978;53.646;55.930;2022-11-25T04:14:33;100345.09;;;-0.85;87.64
60101;BME280;45978;53.646;55.930;2022-11-25T04:15:35;100367.00;;;-0.69;87.88
60101;BME280;45978;53.646;55.930;2022-11-25T04:16:38;100368.59;;;-0.74;87.70
60101;BME280;45978;53.646;55.930;2022-11-25T04:17:39;100362.56;;;-0.74;87.97
60101;BME280;45978;53.646;55.930;2022-11-25T04:18:42;100364.38;;;-0.70;87.70
60101;BME280;45978;53.646;55.930;2022-11-25T04:19:44;100368.69;;;-0.69;87.70
60101;BME280;45978;53.646;55.930;2022-11-25T04:20:49;100360.09;;;-0.70;87.55
60101;BME280;45978;53.646;55.930;2022-11-25T04:21:51;100374.06;;;-0.62;87.58
60101;BME280;45978;53.646;55.930;2022-11-25T04:22:53;100358.38;;;-0.69;87.38
60101;BME280;45978;53.646;55.930;2022-11-25T04:23:55;100373.19;;;-0.62;87.71
60101;BME280;45978;53.646;55.930;2022-11-25T04:24:56;100381.94;;;-0.57;87.23
60101;BME280;45978;53.646;55.930;2022-11-25T04:26:00;100360.19;;;-0.65;87.30
60101;BME280;45978;53.646;55.930;2022-11-25T04:27:09;100379.34;;;-0.55;87.18
60101;BME280;45978;53.646;55.930;2022-11-25T04:28:10;100375.91;;;-0.56;87.22
60101;BME280;45978;53.646;55.930;2022-11-25T04:29:11;100374.19;;;-0.55;87.23
60101;BME280;45978;53.646;55.930;2022-11-25T04:30:19;100373.19;;;-0.62;86.77
60101;BME280;45978;53.646;55.930;2022-11-25T04:31:22;100374.09;;;-0.60;87.01
60101;BME280;45978;53.646;55.930;2022-11-25T04:32:23;100379.25;;;-0.60;86.93
60101;BME280;45978;53.646;55.930;2022-11-25T04:33:25;100380.84;;;-0.65;86.86
60101;BME280;45978;53.646;55.930;2022-11-25T04:34:27;100371.28;;;-0.69;86.89
60101;BME280;45978;53.646;55.930;2022-11-25T04:35:28;100376.53;;;-0.66;86.95
60101;BME280;45978;53.646;55.930;2022-11-25T04:36:31;100386.03;;;-0.64;87.24
60101;BME280;45978;53.646;55.930;2022-11-25T04:37:33;100380.84;;;-0.65;87.30
60101;BME280;45978;53.646;55.930;2022-11-25T04:38:35;100385.97;;;-0.67;86.89
60101;BME280;45978;53.646;55.930;2022-11-25T04:39:38;100396.41;;;-0.62;86.39
60101;BME280;45978;53.646;55.930;2022-11-25T04:40:47;100368.53;;;-0.75;86.28
60101;BME280;45978;53.646;55.930;2022-11-25T04:41:53;100371.06;;;-0.78;86.55
60101;BME280;45978;53.646;55.930;2022-11-25T04:43:15;100394.47;;;-0.69;86.43
60101;BME280;45978;53.646;55.930;2022-11-25T04:44:25;100397.97;;;-0.69;86.43
60101;BME280;45978;53.646;55.930;2022-11-25T04:45:27;100398.88;;;-0.67;86.23
60101;BME280;45978;53.646;55.930;2022-11-25T04:46:39;100395.22;;;-0.73;85.85
60101;BME280;45978;53.646;55.930;2022-11-25T04:47:41;100407.47;;;-0.66;85.68
60101;BME280;45978;53.646;55.930;2022-11-25T04:48:43;100417.78;;;-0.66;85.82
60101;BME280;45978;53.646;55.930;2022-11-25T04:49:45;100400.28;;;-0.78;85.61
60101;BME280;45978;53.646;55.930;2022-11-25T04:50:46;100402.06;;;-0.75;86.15
60101;BME280;45978;53.646;55.930;2022-11-25T04:51:48;100421.28;;;-0.64;85.77
60101;BME280;45978;53.646;55.930;2022-11-25T04:52:49;100406.41;;;-0.73;84.88
60101;BME280;45978;53.646;55.930;2022-11-25T04:53:51;100393.34;;;-0.81;85.21
60101;BME280;45978;53.646;55.930;2022-11-25T04:54:52;100405.50;;;-0.75;85.19
60101;BME280;45978;53.646;55.930;2022-11-25T04:55:54;100416.13;;;-0.64;84.86
60101;BME280;45978;53.646;55.930;2022-11-25T04:56:55;100430.84;;;-0.60;85.22
60101;BME280;45978;53.646;55.930;2022-11-25T04:57:57;100433.41;;;-0.60;85.51
60101;BME280;45978;53.646;55.930;2022-11-25T04:58:59;100407.38;;;-0.69;84.95
60101;BME280;45978;53.646;55.930;2022-11-25T05:00:20;100410.88;;;-0.67;84.35
60101;BME280;45978;53.646;55.930;2022-11-25T05:01:23;100428.34;;;-0.57;85.12
60101;BME280;45978;53.646;55.930;2022-11-25T05:02:27;100413.44;;;-0.67;84.79
60101;BME280;45978;53.646;55.930;2022-11-25T05:03:37;100431.84;;;-0.53;84.53
60101;BME280;45978;53.646;55.930;2022-11-25T05:04:39;100410.09;;;-0.63;84.58
60101;BME280;45978;53.646;55.930;2022-11-25T05:05:42;100422.28;;;-0.59;83.85
60101;BME280;45978;53.646;55.930;2022-11-25T05:06:43;100425.78;;;-0.55;84.76
60101;BME280;45978;53.646;55.930;2022-11-25T05:07:48;100426.69;;;-0.53;84.25
60101;BME280;45978;53.646;55.930;2022-11-25T05:08:50;100416.38;;;-0.55;83.92
60101;BME280;45978;53.646;55.930;2022-11-25T05:09:52;100400.63;;;-0.64;83.90
60101;BME280;45978;53.646;55.930;2022-11-25T05:11:14;100433.72;;;-0.48;83.97
60101;BME280;45978;53.646;55.930;2022-11-25T05:12:23;100425.88;;;-0.52;83.18
60101;BME280;45978;53.646;55.930;2022-11-25T05:13:26;100439.03;;;-0.42;83.66
60101;BME280;45978;53.646;55.930;2022-11-25T05:14:28;100441.63;;;-0.42;83.08
60101;BME280;45978;53.646;55.930;2022-11-25T05:15:29;100433.88;;;-0.42;83.19
60101;BME280;45978;53.646;55.930;2022-11-25T05:16:33;100421.72;;;-0.46;83.24
60101;BME280;45978;53.646;55.930;2022-11-25T05:17:36;100444.38;;;-0.35;83.30
60101;BME280;45978;53.646;55.930;2022-11-25T05:18:37;100439.94;;;-0.40;83.01
60101;BME280;45978;53.646;55.930;2022-11-25T05:19:40;100438.41;;;-0.33;82.84
60101;BME280;45978;53.646;55.930;2022-11-25T05:20:41;100427.97;;;-0.37;83.23
60101;BME280;45978;53.646;55.930;2022-11-25T05:21:45;100446.34;;;-0.25;82.59
60101;BME280;45978;53.646;55.930;2022-11-25T05:22:47;100449.81;;;-0.25;82.81
60101;BME280;45978;53.646;55.930;2022-11-25T05:23:54;100458.50;;;-0.21;82.93
60101;BME280;45978;53.646;55.930;2022-11-25T05:24:56;100430.78;;;-0.28;82.50
60101;BME280;45978;53.646;55.930;2022-11-25T05:25:59;100435.22;;;-0.23;82.70
60101;BME280;45978;53.646;55.930;2022-11-25T05:27:11;100441.44;;;-0.14;81.96
60101;BME280;45978;53.646;55.930;2022-11-25T05:28:12;100448.41;;;-0.12;82.38
60101;BME280;45978;53.646;55.930;2022-11-25T05:29:14;100437.84;;;-0.21;81.87
60101;BME280;45978;53.646;55.930;2022-11-25T05:30:16;100438.91;;;-0.13;82.07
60101;BME280;45978;53.646;55.930;2022-11-25T05:31:18;100447.84;;;0.00;82.07
60101;BME280;45978;53.646;55.930;2022-11-25T05:32:19;100449.59;;;0.03;81.79
60101;BME280;45978;53.646;55.930;2022-11-25T05:33:23;100446.06;;;-0.01;81.84
60101;BME280;45978;53.646;55.930;2022-11-25T05:34:24;100447.84;;;0.00;81.58
60101;BME280;45978;53.646;55.930;2022-11-25T05:35:28;100447.03;;;0.03;81.48
60101;BME280;45978;53.646;55.930;2022-11-25T05:36:30;100461.78;;;0.08;81.25
60101;BME280;45978;53.646;55.930;2022-11-25T05:37:32;100431.41;;;-0.04;81.56
60101;BME280;45978;53.646;55.930;2022-11-25T05:38:38;100442.78;;;0.05;81.69
60101;BME280;45978;53.646;55.930;2022-11-25T05:39:41;100455.00;;;0.13;81.43
60101;BME280;45978;53.646;55.930;2022-11-25T05:41:09;100448.16;;;0.14;81.22
60101;BME280;45978;53.646;55.930;2022-11-25T05:42:13;100452.56;;;0.18;80.72
60101;BME280;45978;53.646;55.930;2022-11-25T05:43:16;100457.72;;;0.18;81.05
60101;BME280;45978;53.646;55.930;2022-11-25T05:44:17;100445.59;;;0.14;80.39
60101;BME280;45978;53.646;55.930;2022-11-25T05:45:19;100465.66;;;0.27;80.91